createdAt,value
2023-03-14T00:00:14.255Z,26.00
2023-03-14T00:02:42.012Z,35.50
2023-03-14T00:05:10.207Z,28.00
2023-03-14T00:07:39.137Z,31.75
2023-03-14T00:10:09.539Z,34.00
2023-03-14T00:12:37.109Z,38.50
2023-03-14T00:15:05.628Z,22.75
2023-03-14T00:17:32.927Z,25.75
2023-03-14T00:20:05.498Z,32.50
2023-03-14T00:22:33.473Z,31.75
2023-03-14T00:25:00.544Z,26.25
2023-03-14T00:27:28.656Z,13.50
2023-03-14T00:29:55.622Z,18.75
2023-03-14T00:32:23.908Z,14.50
2023-03-14T00:34:51.044Z,12.00
2023-03-14T00:37:18.100Z,16.75
2023-03-14T00:39:45.149Z,17.00
2023-03-14T00:42:12.275Z,13.00
2023-03-14T00:44:39.436Z,7.25
2023-03-14T00:47:07.924Z,6.25
2023-03-14T00:49:35.128Z,3.25
2023-03-14T00:52:03.140Z,5.50
2023-03-14T00:54:30.246Z,2.25
2023-03-14T00:56:57.214Z,2.00
2023-03-14T00:59:24.187Z,8.75
2023-03-14T01:01:51.226Z,11.25
2023-03-14T01:04:18.395Z,7.75
2023-03-14T01:06:47.538Z,8.00
2023-03-14T01:09:33.465Z,6.50
2023-03-14T01:12:18.964Z,7.00
2023-03-14T01:15:01.603Z,4.00
2023-03-14T01:17:51.515Z,3.00
2023-03-14T01:20:43.581Z,1.75
2023-03-14T01:23:10.477Z,1.00
2023-03-14T01:25:42.531Z,0.00
2023-03-14T01:28:09.510Z,0.00
2023-03-14T01:30:36.497Z,1.00
2023-03-14T01:33:03.481Z,1.75
2023-03-14T01:35:30.766Z,6.00
2023-03-14T01:37:57.731Z,5.00
2023-03-14T01:40:25.061Z,8.00
2023-03-14T01:42:59.736Z,3.00
2023-03-14T01:46:04.219Z,6.00
2023-03-14T01:48:40.141Z,2.50
2023-03-14T01:51:12.851Z,2.00
2023-03-14T01:53:41.539Z,0.75
2023-03-14T01:56:10.748Z,1.00
2023-03-14T01:58:40.630Z,1.00
2023-03-14T02:01:10.244Z,0.50
2023-03-14T02:03:46.943Z,0.75
2023-03-14T02:06:18.840Z,1.00
2023-03-14T02:09:07.654Z,0.00
2023-03-14T02:11:51.059Z,0.00
2023-03-14T02:14:45.873Z,0.00
2023-03-14T02:17:32.398Z,0.00
2023-03-14T02:20:22.336Z,0.00
2023-03-14T02:23:08.242Z,0.00
2023-03-14T02:25:57.344Z,0.00
2023-03-14T02:28:24.891Z,1.00
2023-03-14T02:30:51.870Z,3.00
2023-03-14T02:33:21.653Z,6.50
2023-03-14T02:36:01.138Z,10.00
2023-03-14T02:38:58.049Z,26.75
2023-03-14T02:41:25.158Z,26.50
2023-03-14T02:43:52.182Z,20.50
2023-03-14T02:46:21.471Z,17.50
2023-03-14T02:48:58.193Z,15.50
2023-03-14T02:51:27.376Z,11.00
2023-03-14T02:53:54.439Z,10.00
2023-03-14T02:56:21.472Z,9.00
2023-03-14T02:58:48.523Z,17.00
2023-03-14T03:01:15.603Z,19.75
2023-03-14T03:03:42.801Z,12.50
2023-03-14T03:06:09.993Z,19.00
2023-03-14T03:08:37.414Z,13.25
2023-03-14T03:11:05.305Z,12.75
2023-03-14T03:13:32.329Z,8.25
2023-03-14T03:15:59.285Z,8.00
2023-03-14T03:18:26.751Z,9.00
2023-03-14T03:20:54.402Z,9.00
2023-03-14T03:23:21.461Z,9.75
2023-03-14T03:25:52.725Z,19.25
2023-03-14T03:28:20.787Z,22.00
2023-03-14T03:30:48.089Z,30.75
2023-03-14T03:33:15.976Z,28.25
2023-03-14T03:35:47.474Z,17.75
2023-03-14T03:38:16.497Z,17.75
2023-03-14T03:40:44.037Z,23.25
2023-03-14T03:43:11.265Z,39.00
2023-03-14T03:45:38.186Z,28.25
2023-03-14T03:48:05.641Z,26.00
2023-03-14T03:50:32.597Z,26.00
2023-03-14T03:52:59.659Z,35.50
2023-03-14T03:55:27.603Z,26.00
2023-03-14T03:57:56.190Z,24.75
2023-03-14T04:00:24.857Z,21.75
2023-03-14T04:02:51.981Z,17.50
2023-03-14T04:05:19.270Z,24.25
2023-03-14T04:07:46.340Z,34.75
2023-03-14T04:10:13.382Z,38.25
2023-03-14T04:12:40.435Z,37.75
2023-03-14T04:15:08.183Z,38.25
2023-03-14T04:17:35.358Z,33.00
2023-03-14T04:20:02.704Z,27.50
2023-03-14T04:22:29.751Z,27.00
2023-03-14T04:24:56.827Z,21.00
2023-03-14T04:27:23.949Z,9.00
2023-03-14T04:29:51.086Z,11.75
2023-03-14T04:32:18.170Z,9.00
2023-03-14T04:34:45.183Z,17.50
2023-03-14T04:37:13.273Z,14.00
2023-03-14T04:39:44.040Z,9.00
2023-03-14T04:42:11.096Z,13.00
2023-03-14T04:44:51.595Z,14.00
2023-03-14T04:47:18.934Z,8.25
2023-03-14T04:49:46.568Z,8.00
2023-03-14T04:52:15.694Z,4.25
2023-03-14T04:54:42.679Z,17.00
2023-03-14T04:57:09.612Z,25.50
2023-03-14T04:59:36.619Z,26.25
2023-03-14T05:02:03.635Z,18.50
2023-03-14T05:04:34.105Z,15.50
2023-03-14T05:07:01.602Z,11.75
2023-03-14T05:09:28.831Z,14.50
2023-03-14T05:11:55.716Z,6.00
2023-03-14T05:14:22.825Z,33.50
2023-03-14T05:16:49.877Z,42.50
2023-03-14T05:19:16.875Z,55.00
2023-03-14T05:21:43.829Z,45.67
2023-03-14T05:24:10.774Z,37.50
2023-03-14T05:26:37.696Z,33.75
2023-03-14T05:29:04.636Z,26.50
2023-03-14T05:31:31.593Z,17.25
2023-03-14T05:33:58.800Z,13.00
2023-03-14T05:36:25.739Z,9.00
2023-03-14T05:38:52.705Z,9.00
2023-03-14T05:41:19.594Z,7.00
2023-03-14T05:43:46.552Z,5.50
2023-03-14T05:46:13.502Z,4.00
2023-03-14T05:48:40.535Z,4.00
2023-03-14T05:51:07.889Z,2.00
2023-03-14T05:53:34.818Z,1.75
2023-03-14T05:56:01.714Z,2.00
2023-03-14T05:58:28.741Z,2.00
2023-03-14T06:00:55.672Z,1.75
2023-03-14T06:03:22.663Z,2.00
2023-03-14T06:05:53.269Z,1.75
2023-03-14T06:08:20.180Z,2.00
2023-03-14T06:10:47.142Z,1.00
2023-03-14T06:13:14.276Z,2.00
2023-03-14T06:15:41.199Z,1.00
2023-03-14T06:18:08.317Z,2.00
2023-03-14T06:20:40.359Z,2.25
2023-03-14T06:23:09.917Z,3.25
2023-03-14T06:25:37.454Z,3.00
2023-03-14T06:28:05.791Z,3.00
2023-03-14T06:30:32.803Z,5.00
2023-03-14T06:33:00.078Z,4.00
2023-03-14T06:35:27.133Z,6.25
2023-03-14T06:37:54.077Z,4.00
2023-03-14T06:40:21.118Z,3.75
2023-03-14T06:42:48.587Z,1.50
2023-03-14T06:45:15.878Z,1.00
2023-03-14T06:47:42.985Z,4.00
2023-03-14T06:50:10.898Z,4.00
2023-03-14T06:52:38.648Z,3.00
2023-03-14T06:55:06.105Z,3.25
2023-03-14T06:57:33.025Z,3.50
2023-03-14T06:59:59.938Z,4.75
2023-03-14T07:02:39.875Z,5.00
2023-03-14T07:05:11.471Z,3.25
2023-03-14T07:07:38.739Z,4.00
2023-03-14T07:10:06.264Z,4.00
2023-03-14T07:12:33.150Z,3.00
2023-03-14T07:15:11.926Z,3.25
2023-03-14T07:17:44.136Z,2.00
2023-03-14T07:20:11.760Z,4.50
2023-03-14T07:22:38.737Z,4.00
2023-03-14T07:25:06.610Z,4.00
2023-03-14T07:27:33.560Z,3.50
2023-03-14T07:30:00.534Z,3.75
2023-03-14T07:32:27.468Z,3.00
2023-03-14T07:34:57.702Z,5.50
2023-03-14T07:37:24.671Z,4.00
2023-03-14T07:39:51.651Z,4.25
2023-03-14T07:42:18.534Z,4.00
2023-03-14T07:44:46.463Z,3.00
2023-03-14T07:47:13.413Z,4.75
2023-03-14T07:49:40.345Z,3.00
2023-03-14T07:52:07.362Z,3.25
2023-03-14T07:54:34.299Z,3.75
2023-03-14T07:57:01.951Z,4.00
2023-03-14T07:59:29.257Z,3.00
2023-03-14T08:01:56.276Z,6.00
2023-03-14T08:04:23.165Z,2.00
2023-03-14T08:06:50.166Z,5.25
2023-03-14T08:09:17.144Z,6.25
2023-03-14T08:11:44.049Z,2.75
2023-03-14T08:14:12.329Z,4.25
2023-03-14T08:16:39.296Z,3.25
2023-03-14T08:19:06.223Z,5.50
2023-03-14T08:21:33.156Z,5.00
2023-03-14T08:24:00.102Z,5.00
2023-03-14T08:26:29.832Z,6.00
2023-03-14T08:28:56.825Z,5.75
2023-03-14T08:31:24.020Z,5.00
2023-03-14T08:33:53.322Z,5.00
2023-03-14T08:36:23.814Z,3.00
2023-03-14T08:38:51.143Z,5.00
2023-03-14T08:41:18.109Z,3.25
2023-03-14T08:43:45.011Z,4.00
2023-03-14T08:46:12.037Z,5.75
2023-03-14T08:48:38.981Z,4.00
2023-03-14T08:51:12.007Z,4.75
2023-03-14T08:53:38.935Z,4.75
2023-03-14T08:56:07.375Z,3.25
2023-03-14T08:58:34.605Z,4.00
2023-03-14T09:01:01.626Z,4.25
2023-03-14T09:03:29.662Z,4.00
2023-03-14T09:05:56.587Z,4.25
2023-03-14T09:08:23.527Z,5.00
2023-03-14T09:10:50.434Z,5.25
2023-03-14T09:13:17.353Z,6.00
2023-03-14T09:15:44.387Z,4.00
2023-03-14T09:18:11.281Z,6.00
2023-03-14T09:20:38.222Z,4.00
2023-03-14T09:23:05.179Z,4.00
2023-03-14T09:25:32.151Z,4.00
2023-03-14T09:27:59.036Z,3.00
2023-03-14T09:30:26.000Z,3.25
2023-03-14T09:32:53.250Z,3.75
2023-03-14T09:35:20.433Z,6.25
2023-03-14T09:37:47.525Z,4.00
2023-03-14T09:40:17.796Z,5.75
2023-03-14T09:42:44.698Z,4.50
2023-03-14T09:45:20.855Z,3.00
2023-03-14T09:47:58.546Z,4.00
2023-03-14T09:50:31.154Z,4.50
2023-03-14T09:53:03.484Z,4.00
2023-03-14T09:55:30.506Z,4.00
2023-03-14T09:58:04.988Z,3.00
2023-03-14T10:00:33.123Z,5.00
2023-03-14T10:03:15.166Z,3.25
2023-03-14T10:05:43.154Z,4.00
2023-03-14T10:08:14.817Z,4.00
2023-03-14T10:10:42.313Z,3.33
2023-03-14T10:13:29.145Z,3.75
2023-03-14T10:16:05.390Z,5.25
2023-03-14T10:18:35.810Z,4.00
2023-03-14T10:21:17.111Z,4.33
2023-03-14T10:23:44.171Z,4.00
2023-03-14T10:26:16.949Z,5.00
2023-03-14T10:28:54.008Z,3.00
2023-03-14T10:31:27.016Z,4.33
2023-03-14T10:34:06.341Z,2.33
2023-03-14T10:36:35.931Z,2.67
2023-03-14T10:39:24.088Z,3.25
2023-03-14T10:42:00.016Z,3.00
2023-03-14T10:44:27.378Z,2.33
2023-03-14T10:47:00.636Z,4.00
2023-03-14T10:49:36.063Z,3.00
2023-03-14T10:52:16.906Z,4.50
2023-03-14T10:54:48.773Z,6.00
2023-03-14T10:57:15.778Z,5.75
2023-03-14T10:59:45.645Z,4.25
2023-03-14T11:02:24.127Z,4.50
2023-03-14T11:05:16.540Z,4.00
2023-03-14T11:07:46.265Z,3.50
2023-03-14T11:10:20.295Z,4.00
2023-03-14T11:13:08.182Z,4.50
2023-03-14T11:16:10.592Z,4.25
2023-03-14T11:19:14.657Z,5.50
2023-03-14T11:21:58.105Z,4.25
2023-03-14T11:24:37.290Z,6.75
2023-03-14T11:27:10.094Z,6.00
2023-03-14T11:29:56.899Z,4.25
2023-03-14T11:32:43.115Z,8.75
2023-03-14T11:35:24.646Z,8.00
2023-03-14T11:37:56.656Z,6.00
2023-03-14T11:40:29.091Z,7.00
2023-03-14T11:43:10.654Z,5.50
2023-03-14T11:45:42.018Z,4.00
2023-03-14T11:48:20.150Z,5.00
2023-03-14T11:50:53.153Z,5.00
2023-03-14T11:53:45.657Z,6.75
2023-03-14T11:56:31.274Z,5.00
2023-03-14T11:59:07.520Z,6.25
2023-03-14T12:01:50.769Z,4.25
2023-03-14T12:04:32.745Z,7.50
2023-03-14T12:07:04.624Z,4.00
2023-03-14T12:09:32.597Z,6.00
2023-03-14T12:12:03.842Z,6.00
2023-03-14T12:14:37.027Z,7.25
2023-03-14T12:17:21.247Z,7.25
2023-03-14T12:20:00.068Z,7.00
2023-03-14T12:22:36.792Z,10.00
2023-03-14T12:25:25.699Z,10.00
2023-03-14T12:27:55.710Z,6.00
2023-03-14T12:30:38.484Z,5.50
2023-03-14T12:33:14.014Z,5.00
2023-03-14T12:35:46.459Z,6.00
2023-03-14T12:38:25.837Z,10.00
2023-03-14T12:41:15.485Z,8.25
2023-03-14T12:43:43.128Z,8.00
2023-03-14T12:46:18.868Z,7.25
2023-03-14T12:49:09.399Z,5.75
2023-03-14T12:51:38.106Z,10.75
2023-03-14T12:54:17.668Z,9.75
2023-03-14T12:56:50.407Z,8.25
2023-03-14T12:59:28.133Z,11.00
2023-03-14T13:02:07.162Z,9.00
2023-03-14T13:04:47.194Z,6.00
2023-03-14T13:07:30.921Z,10.50
2023-03-14T13:10:13.142Z,7.25
2023-03-14T13:12:46.536Z,6.75
2023-03-14T13:15:30.501Z,6.00
2023-03-14T13:18:11.103Z,5.00
2023-03-14T13:20:42.997Z,9.75
2023-03-14T13:23:28.452Z,8.00
2023-03-14T13:25:56.482Z,6.50
2023-03-14T13:28:24.157Z,10.75
2023-03-14T13:30:56.091Z,8.75
2023-03-14T13:33:25.009Z,6.00
2023-03-14T13:36:04.971Z,9.25
2023-03-14T13:38:37.203Z,5.00
2023-03-14T13:41:09.238Z,6.00
2023-03-14T13:43:45.726Z,5.00
2023-03-14T13:46:23.670Z,4.75
2023-03-14T13:48:54.674Z,7.50
2023-03-14T13:51:22.511Z,5.00
2023-03-14T13:53:54.779Z,4.00
2023-03-14T13:56:24.349Z,7.50
2023-03-14T13:58:51.751Z,2.50
2023-03-14T14:01:35.283Z,4.75
2023-03-14T14:04:15.453Z,5.75
2023-03-14T14:06:52.678Z,5.00
2023-03-14T14:09:25.396Z,5.00
2023-03-14T14:12:21.472Z,5.00
2023-03-14T14:14:59.201Z,5.00
2023-03-14T14:17:35.877Z,5.00
2023-03-14T14:20:06.818Z,3.00
2023-03-14T14:22:34.303Z,4.00
2023-03-14T14:25:03.094Z,4.00
2023-03-14T14:27:42.301Z,4.75
2023-03-14T14:30:18.269Z,3.25
2023-03-14T14:32:49.540Z,2.75
2023-03-14T14:35:33.814Z,3.75
2023-03-14T14:38:01.012Z,3.00
2023-03-14T14:40:32.773Z,3.75
2023-03-14T14:43:07.048Z,3.00
2023-03-14T14:45:36.305Z,3.00
2023-03-14T14:48:03.279Z,2.25
2023-03-14T14:50:40.098Z,2.00
2023-03-14T14:53:28.766Z,3.00
2023-03-14T14:56:04.803Z,3.00
2023-03-14T14:58:39.502Z,3.00
2023-03-14T15:01:09.260Z,5.00
2023-03-14T15:03:36.954Z,3.00
2023-03-14T15:06:05.230Z,4.00
2023-03-14T15:08:32.674Z,6.00
2023-03-14T15:11:04.764Z,7.75
2023-03-14T15:13:31.920Z,5.00
2023-03-14T15:15:59.143Z,7.00
2023-03-14T15:18:31.010Z,6.00
2023-03-14T15:20:58.199Z,4.75
2023-03-14T15:23:26.178Z,5.50
2023-03-14T15:25:56.234Z,5.00
2023-03-14T15:28:29.027Z,5.00
2023-03-14T15:30:58.465Z,4.00
2023-03-14T15:33:27.188Z,3.00
2023-03-14T15:35:54.207Z,3.00
2023-03-14T15:38:24.177Z,2.00
2023-03-14T15:40:52.465Z,3.00
2023-03-14T15:43:20.373Z,2.25
2023-03-14T15:45:47.780Z,3.00
2023-03-14T15:48:22.996Z,3.00
2023-03-14T15:50:49.938Z,4.00
2023-03-14T15:53:16.943Z,3.50
2023-03-14T15:55:44.026Z,3.75
2023-03-14T15:58:21.459Z,2.00
2023-03-14T16:00:50.190Z,3.00
2023-03-14T16:03:17.402Z,2.00
2023-03-14T16:05:44.615Z,2.75
2023-03-14T16:08:11.594Z,5.00
2023-03-14T16:10:39.859Z,5.00
2023-03-14T16:13:06.850Z,6.50
2023-03-14T16:15:33.777Z,7.00
2023-03-14T16:18:02.439Z,6.75
2023-03-14T16:20:47.218Z,6.00
2023-03-14T16:23:16.743Z,3.00
2023-03-14T16:25:45.749Z,5.75
2023-03-14T16:28:12.689Z,4.75
2023-03-14T16:30:39.767Z,4.25
2023-03-14T16:33:12.410Z,4.75
2023-03-14T16:35:43.449Z,6.25
2023-03-14T16:38:10.794Z,11.00
2023-03-14T16:40:38.455Z,9.00
2023-03-14T16:43:15.677Z,8.50
2023-03-14T16:45:43.547Z,5.25
2023-03-14T16:48:10.554Z,8.00
2023-03-14T16:50:39.869Z,4.50
2023-03-14T16:53:09.693Z,2.25
2023-03-14T16:55:44.476Z,5.75
2023-03-14T16:58:11.740Z,3.25
2023-03-14T17:00:39.473Z,4.50
2023-03-14T17:03:06.921Z,3.50
2023-03-14T17:05:34.457Z,4.00
2023-03-14T17:08:01.656Z,3.00
2023-03-14T17:10:28.652Z,3.75
2023-03-14T17:12:55.592Z,2.25
2023-03-14T17:15:22.537Z,3.75
2023-03-14T17:17:49.568Z,4.00
2023-03-14T17:20:17.835Z,5.00
2023-03-14T17:23:38.531Z,3.25
2023-03-14T17:26:06.131Z,3.25
2023-03-14T17:28:33.718Z,3.75
2023-03-14T17:31:13.263Z,3.00
2023-03-14T17:33:40.849Z,3.00
2023-03-14T17:36:08.797Z,2.50
2023-03-14T17:38:37.085Z,1.50
2023-03-14T17:41:05.179Z,4.00
2023-03-14T17:43:33.968Z,5.50
2023-03-14T17:46:07.112Z,7.00
2023-03-14T17:48:34.211Z,7.00
2023-03-14T17:51:02.350Z,9.25
2023-03-14T17:53:30.304Z,10.50
2023-03-14T17:55:58.355Z,10.00
2023-03-14T17:58:25.994Z,9.00
2023-03-14T18:00:53.026Z,9.00
2023-03-14T18:03:22.776Z,7.00
2023-03-14T18:05:49.834Z,5.00
2023-03-14T18:08:16.902Z,5.00
2023-03-14T18:10:44.005Z,6.50
2023-03-14T18:13:11.034Z,5.50
2023-03-14T18:15:38.951Z,6.75
2023-03-14T18:18:06.006Z,7.00
2023-03-14T18:20:33.007Z,4.00
2023-03-14T18:23:01.877Z,4.00
2023-03-14T18:25:31.586Z,4.25
2023-03-14T18:27:58.688Z,4.00
2023-03-14T18:30:26.817Z,3.50
2023-03-14T18:32:53.845Z,5.50
2023-03-14T18:35:20.823Z,3.75
2023-03-14T18:37:47.751Z,6.75
2023-03-14T18:40:17.165Z,5.00
2023-03-14T18:42:44.285Z,8.00
2023-03-14T18:45:11.895Z,7.00
2023-03-14T18:47:38.992Z,8.00
2023-03-14T18:50:09.318Z,7.75
2023-03-14T18:52:36.286Z,10.00
2023-03-14T18:55:03.894Z,9.00
2023-03-14T18:57:30.832Z,9.75
2023-03-14T18:59:58.648Z,11.00
2023-03-14T19:02:26.886Z,10.00
2023-03-14T19:04:54.006Z,13.00
2023-03-14T19:07:23.748Z,8.50
2023-03-14T19:09:51.007Z,10.75
2023-03-14T19:12:19.106Z,9.00
2023-03-14T19:14:46.082Z,8.75
2023-03-14T19:17:14.151Z,8.00
2023-03-14T19:19:41.639Z,8.75
2023-03-14T19:22:08.838Z,10.75
2023-03-14T19:24:35.894Z,13.00
2023-03-14T19:27:02.967Z,11.25
2023-03-14T19:29:30.270Z,11.75
2023-03-14T19:31:57.579Z,10.00
2023-03-14T19:34:24.733Z,8.50
2023-03-14T19:36:52.391Z,10.50
2023-03-14T19:39:19.864Z,10.00
2023-03-14T19:41:47.035Z,10.00
2023-03-14T19:44:15.203Z,9.00
2023-03-14T19:46:42.848Z,8.50
2023-03-14T19:49:10.934Z,9.25
2023-03-14T19:51:38.092Z,10.00
2023-03-14T19:54:05.566Z,9.75
2023-03-14T19:56:35.718Z,9.50
2023-03-14T19:59:03.533Z,12.75
2023-03-14T20:01:32.274Z,10.75
2023-03-14T20:03:59.609Z,10.00
2023-03-14T20:06:26.597Z,11.25
2023-03-14T20:08:53.735Z,9.25
2023-03-14T20:11:20.672Z,13.75
2023-03-14T20:13:47.795Z,13.00
2023-03-14T20:16:15.002Z,14.75
2023-03-14T20:18:42.405Z,9.25
2023-03-14T20:21:13.054Z,9.75
2023-03-14T20:23:43.939Z,1.00
2023-03-14T20:26:11.203Z,7.50
2023-03-14T20:28:38.699Z,7.50
2023-03-14T20:31:08.529Z,8.50
2023-03-14T20:33:35.937Z,7.00
2023-03-14T20:36:03.110Z,7.00
2023-03-14T20:38:31.474Z,8.75
2023-03-14T20:40:59.726Z,8.50
2023-03-14T20:43:28.019Z,10.00
2023-03-14T20:45:57.095Z,5.50
2023-03-14T20:48:25.619Z,4.00
2023-03-14T20:50:53.345Z,4.25
2023-03-14T20:53:21.658Z,3.00
2023-03-14T20:55:49.476Z,6.50
2023-03-14T20:58:19.711Z,4.75
2023-03-14T21:00:53.602Z,5.00
2023-03-14T21:03:20.995Z,3.75
2023-03-14T21:05:48.985Z,4.00
2023-03-14T21:08:19.655Z,4.00
2023-03-14T21:10:48.911Z,6.25
2023-03-14T21:13:17.131Z,7.75
2023-03-14T21:15:45.883Z,5.00
2023-03-14T21:18:13.727Z,7.75
2023-03-14T21:20:42.759Z,4.00
2023-03-14T21:23:12.253Z,3.00
2023-03-14T21:25:42.511Z,4.00
2023-03-14T21:28:10.277Z,4.00
2023-03-14T21:30:37.629Z,4.25
2023-03-14T21:33:04.805Z,5.00
2023-03-14T21:35:31.757Z,3.00
2023-03-14T21:37:59.465Z,4.00
2023-03-14T21:40:27.227Z,1.00
2023-03-14T21:42:55.736Z,4.50
2023-03-14T21:45:27.362Z,3.00
2023-03-14T21:47:58.769Z,3.75
2023-03-14T21:50:27.100Z,2.50
2023-03-14T21:52:57.110Z,2.25
2023-03-14T21:55:26.062Z,3.75
2023-03-14T21:57:55.164Z,2.00
2023-03-14T22:00:26.601Z,1.50
2023-03-14T22:03:11.725Z,3.00
2023-03-14T22:05:42.791Z,3.50
2023-03-14T22:08:09.982Z,2.00
2023-03-14T22:10:36.813Z,2.75
2023-03-14T22:13:03.784Z,0.50
2023-03-14T22:15:30.677Z,2.25
2023-03-14T22:17:57.551Z,2.75
2023-03-14T22:20:24.562Z,2.00
2023-03-14T22:22:51.430Z,2.00
2023-03-14T22:25:18.287Z,2.00
2023-03-14T22:27:45.462Z,2.00
2023-03-14T22:30:12.831Z,2.00
2023-03-14T22:32:39.783Z,2.00
2023-03-14T22:35:06.880Z,2.00
2023-03-14T22:37:33.899Z,3.75
2023-03-14T22:40:00.836Z,3.00
2023-03-14T22:42:27.712Z,3.50
2023-03-14T22:44:54.623Z,5.00
2023-03-14T22:47:21.728Z,4.00
2023-03-14T22:49:48.668Z,4.50
2023-03-14T22:52:16.494Z,10.00
2023-03-14T22:54:43.416Z,5.00
2023-03-14T22:57:10.710Z,4.00
2023-03-14T22:59:37.815Z,3.00
2023-03-14T23:02:04.836Z,4.75
2023-03-14T23:04:32.202Z,2.75
2023-03-14T23:06:59.551Z,10.25
2023-03-14T23:09:26.517Z,10.00
2023-03-14T23:11:54.383Z,10.00
2023-03-14T23:14:23.711Z,11.25
2023-03-14T23:16:51.884Z,8.75
2023-03-14T23:19:25.992Z,10.50
2023-03-14T23:21:54.504Z,16.00
2023-03-14T23:24:23.726Z,21.75
2023-03-14T23:26:51.858Z,21.25
2023-03-14T23:29:18.990Z,30.50
2023-03-14T23:31:46.027Z,26.25
2023-03-14T23:34:12.962Z,21.50
2023-03-14T23:36:39.923Z,18.50
2023-03-14T23:39:08.960Z,14.75
2023-03-14T23:41:35.931Z,16.75
2023-03-14T23:44:03.099Z,19.25
2023-03-14T23:46:31.835Z,19.00
2023-03-14T23:48:58.835Z,17.00
2023-03-14T23:51:25.864Z,13.50
2023-03-14T23:53:53.005Z,17.75
2023-03-14T23:56:20.223Z,13.25
2023-03-14T23:58:47.245Z,16.50
